Time;durP1;ratioP1;P1;durP2;ratioP2;P2;SDS_P1;SDS_P2;PMS_P1;PMS_P2;Temp;Humidity;BMP_temperature;BMP_pressure;BME280_temperature;BME280_humidity;BME280_pressure;Samples;Min_cycle;Max_cycle;Signal;HPM_P1;HPM_P2
2023/09/14 00:01:46;;;;;;;15.85;5.75;;;;;;;18.82;68.01;95021.19;4806114;29;20226;-68
2023/09/14 00:04:11;;;;;;;12.52;7.05;;;;;;;18.79;67.76;95009.19;4806300;29;20593;-68
2023/09/14 00:06:37;;;;;;;13.07;7.03;;;;;;;18.66;67.97;95000.84;4806250;29;20918;-68
2023/09/14 00:09:03;;;;;;;14.82;6.65;;;;;;;18.73;68.39;95017.41;4805991;29;20183;-68
2023/09/14 00:11:28;;;;;;;12.50;7.18;;;;;;;18.67;68.32;95007.78;4806109;29;20244;-68
2023/09/14 00:13:54;;;;;;;14.63;6.45;;;;;;;18.67;68.19;95013.13;4805865;29;20192;-68
2023/09/14 00:16:19;;;;;;;15.60;6.10;;;;;;;18.66;68.50;95025.66;4805936;29;20180;-68
2023/09/14 00:18:44;;;;;;;9.10;5.28;;;;;;;18.63;68.31;95015.47;4806014;29;20176;-68
2023/09/14 00:21:10;;;;;;;12.85;5.22;;;;;;;18.59;68.74;95019.72;4805763;29;20721;-68
2023/09/14 00:23:35;;;;;;;12.95;6.10;;;;;;;18.59;68.54;95017.06;4805847;29;20187;-68
2023/09/14 00:26:00;;;;;;;12.77;6.07;;;;;;;18.59;68.96;95018.94;4805958;29;20516;-68
2023/09/14 00:28:26;;;;;;;12.63;4.68;;;;;;;18.57;69.05;95015.72;4805706;29;20182;-68
2023/09/14 00:30:55;;;;;;;9.93;5.25;;;;;;;18.49;69.04;95019.63;4805591;29;20237;-68
2023/09/14 00:33:22;;;;;;;14.27;5.35;;;;;;;18.38;69.55;95024.06;4805864;29;20615;-68
2023/09/14 00:35:47;;;;;;;6.10;4.53;;;;;;;18.37;69.50;95021.66;4805743;29;20192;-68
2023/09/14 00:38:13;;;;;;;6.72;4.32;;;;;;;18.34;69.60;95019.50;4805512;29;20256;-68
2023/09/14 00:40:38;;;;;;;19.13;5.15;;;;;;;18.23;69.98;95026.63;4796436;29;20176;-68
2023/09/14 00:43:04;;;;;;;9.25;5.30;;;;;;;18.25;70.11;95021.81;4787685;30;20212;-68
2023/09/14 00:45:31;;;;;;;18.25;5.63;;;;;;;18.31;69.82;95026.16;4787755;29;20222;-68
2023/09/14 00:47:58;;;;;;;9.05;4.93;;;;;;;18.31;70.01;95012.81;4787609;29;20188;-68
2023/09/14 00:50:24;;;;;;;11.18;4.93;;;;;;;18.28;70.17;95018.66;4787354;29;20724;-68
2023/09/14 00:52:55;;;;;;;9.98;6.05;;;;;;;18.26;70.30;95014.63;4787725;29;20184;-68
2023/09/14 00:55:22;;;;;;;11.98;4.93;;;;;;;18.24;70.51;95017.56;4786004;30;20237;-67
2023/09/14 00:57:48;;;;;;;11.07;5.15;;;;;;;18.25;70.73;95013.06;4787417;29;20196;-68
2023/09/14 01:00:16;;;;;;;9.57;5.07;;;;;;;18.10;70.59;95000.38;4787403;29;20191;-68
2023/09/14 01:02:42;;;;;;;9.35;5.07;;;;;;;18.24;70.59;95014.91;4787114;29;20184;-68
2023/09/14 01:05:09;;;;;;;13.50;5.57;;;;;;;18.16;70.54;95002.06;4787187;29;20279;-68
2023/09/14 01:07:35;;;;;;;6.93;4.25;;;;;;;18.21;70.54;95012.75;4787212;29;20185;-68
2023/09/14 01:10:01;;;;;;;8.98;4.65;;;;;;;18.16;70.73;95006.56;4787005;29;20243;-68
2023/09/14 01:12:27;;;;;;;9.98;4.45;;;;;;;18.18;70.73;95007.91;4787010;29;20321;-67
2023/09/14 01:15:20;;;;;;;12.07;5.00;;;;;;;18.12;71.10;94998.28;4787392;29;20291;-68
2023/09/14 01:17:49;;;;;;;8.75;4.53;;;;;;;18.08;71.31;95002.50;4787002;29;20271;-68
2023/09/14 01:20:50;;;;;;;8.40;4.57;;;;;;;18.06;71.36;95007.28;4786778;30;20184;-68
2023/09/14 01:23:28;;;;;;;15.23;4.82;;;;;;;18.01;71.57;95010.69;4785773;30;20195;-68
2023/09/14 01:25:54;;;;;;;7.50;4.57;;;;;;;17.95;71.83;95002.91;4786837;29;20275;-68
2023/09/14 01:28:20;;;;;;;11.00;4.85;;;;;;;17.96;72.04;95010.66;4786937;29;20220;-68
2023/09/14 01:30:45;;;;;;;9.85;4.18;;;;;;;17.97;71.73;95022.13;4786767;30;20740;-68
2023/09/14 01:33:14;;;;;;;16.17;4.68;;;;;;;17.91;71.69;95023.13;4786687;29;20190;-67
2023/09/14 01:35:54;;;;;;;11.68;4.65;;;;;;;17.88;71.85;95019.13;4770491;30;20189;-68
2023/09/14 01:38:21;;;;;;;8.40;4.28;;;;;;;17.88;71.88;95019.13;4786854;29;20216;-68
2023/09/14 01:40:48;;;;;;;11.68;5.00;;;;;;;17.80;71.73;95000.13;4786860;29;20299;-67
2023/09/14 01:43:15;;;;;;;8.80;4.72;;;;;;;17.81;71.83;95002.53;4786799;30;20192;-68
2023/09/14 01:45:41;;;;;;;11.65;5.18;;;;;;;17.90;71.86;95019.66;4786730;29;20213;-68
2023/09/14 01:48:07;;;;;;;9.20;4.85;;;;;;;17.86;71.98;95009.75;4786634;29;20184;-68
2023/09/14 01:50:32;;;;;;;10.23;4.68;;;;;;;17.86;71.96;95018.56;4786314;29;20212;-68
2023/09/14 01:52:58;;;;;;;16.17;5.30;;;;;;;17.82;72.49;95025.44;4786472;29;20249;-68
2023/09/14 01:55:23;;;;;;;11.82;5.35;;;;;;;17.60;72.94;94995.34;4784819;29;20536;-68
2023/09/14 01:57:49;;;;;;;11.05;5.03;;;;;;;17.67;73.03;95023.41;4786361;29;20269;-68
2023/09/14 02:00:15;;;;;;;8.80;4.70;;;;;;;17.73;72.92;95025.06;4786161;29;20299;-68
2023/09/14 02:02:41;;;;;;;10.95;5.20;;;;;;;17.75;72.61;95019.50;4770027;29;20193;-68
2023/09/14 02:05:06;;;;;;;8.07;5.53;;;;;;;17.77;72.52;95020.06;4786080;29;20536;-68
2023/09/14 02:07:32;;;;;;;6.38;4.90;;;;;;;17.75;72.35;95021.34;4786176;29;20564;-68
2023/09/14 02:09:57;;;;;;;10.40;4.57;;;;;;;17.76;72.40;95023.78;4786134;29;20219;-68
2023/09/14 02:12:24;;;;;;;7.40;4.40;;;;;;;17.71;72.58;95018.41;4785868;29;20596;-68
2023/09/14 02:14:50;;;;;;;10.75;4.40;;;;;;;17.70;72.59;95022.94;4785548;29;20271;-68
2023/09/14 02:17:16;;;;;;;10.00;4.80;;;;;;;17.69;72.62;95026.66;4785920;29;20236;-67
2023/09/14 02:19:42;;;;;;;9.35;5.07;;;;;;;17.64;72.67;95034.56;4785995;29;20181;-68
2023/09/14 02:22:07;;;;;;;12.50;6.13;;;;;;;17.61;72.87;95029.72;4785747;29;20545;-68
2023/09/14 02:24:32;;;;;;;9.23;4.85;;;;;;;17.43;73.18;95016.75;4785993;29;20192;-67
2023/09/14 02:26:58;;;;;;;10.25;4.85;;;;;;;17.59;72.91;95031.81;4785889;29;20189;-68
2023/09/14 02:29:24;;;;;;;9.25;4.72;;;;;;;17.64;72.78;95028.47;4785689;29;20208;-68
2023/09/14 02:31:50;;;;;;;14.40;4.75;;;;;;;17.63;72.86;95035.63;4785631;29;20279;-67
2023/09/14 02:34:15;;;;;;;6.38;4.60;;;;;;;17.65;72.33;95030.84;4785858;30;20231;-68
2023/09/14 02:36:40;;;;;;;7.78;4.45;;;;;;;17.64;72.62;95028.47;4785940;30;20216;-67
2023/09/14 02:39:06;;;;;;;10.65;4.65;;;;;;;17.62;72.34;95033.22;4785701;30;20268;-67
2023/09/14 02:41:33;;;;;;;8.73;4.40;;;;;;;17.50;72.45;94998.72;4785808;29;20189;-67
2023/09/14 02:43:58;;;;;;;12.85;4.90;;;;;;;17.52;72.79;95003.78;4785618;29;20188;-68
2023/09/14 02:46:24;;;;;;;9.43;4.82;;;;;;;17.60;72.78;95004.16;4785395;30;20176;-68
2023/09/14 02:48:50;;;;;;;12.32;5.82;;;;;;;17.61;72.40;95008.44;4785543;29;20191;-68
2023/09/14 02:51:16;;;;;;;12.05;4.82;;;;;;;17.61;72.36;95008.44;4785290;29;20204;-68
2023/09/14 02:53:42;;;;;;;10.07;4.55;;;;;;;17.58;72.70;94995.59;4785526;29;20184;-68
2023/09/14 02:56:09;;;;;;;7.15;4.65;;;;;;;17.54;72.90;94991.03;4785522;29;20192;-68
2023/09/14 02:58:35;;;;;;;6.13;4.63;;;;;;;17.51;72.78;94997.66;4785457;29;20263;-68
2023/09/14 03:01:09;;;;;;;9.20;5.18;;;;;;;17.57;73.09;95006.50;4785350;29;20271;-68
2023/09/14 03:03:38;;;;;;;8.07;4.25;;;;;;;17.56;73.30;95005.69;4785149;29;20195;-68
2023/09/14 03:06:04;;;;;;;9.07;5.18;;;;;;;17.56;73.39;95008.34;4784882;29;20665;-68
2023/09/14 03:08:31;;;;;;;10.00;5.03;;;;;;;17.56;73.54;95016.34;4784849;29;20189;-68
2023/09/14 03:10:57;;;;;;;11.15;5.18;;;;;;;17.60;73.38;95012.13;4784836;29;20636;-68
2023/09/14 03:13:22;;;;;;;12.48;5.18;;;;;;;17.61;73.23;95013.75;4790895;29;20259;-68
2023/09/14 03:15:58;;;;;;;13.82;6.28;;;;;;;17.62;73.22;95014.59;4802768;29;20220;-68
2023/09/14 03:18:25;;;;;;;9.65;5.32;;;;;;;17.65;73.02;95019.38;4802764;29;20175;-68
2023/09/14 03:20:52;;;;;;;12.15;5.10;;;;;;;17.63;72.97;95008.22;4802824;29;20180;-67
2023/09/14 03:23:18;;;;;;;13.90;5.30;;;;;;;17.69;73.12;95021.31;4803037;29;20683;-68
2023/09/14 03:25:44;;;;;;;18.23;5.03;;;;;;;17.71;73.23;95018.41;4802001;29;20183;-67
2023/09/14 03:28:10;;;;;;;11.70;4.70;;;;;;;17.72;72.91;95020.03;4802839;29;20265;-67
2023/09/14 03:30:36;;;;;;;12.05;5.53;;;;;;;17.73;72.99;95026.16;4802572;29;20688;-67
2023/09/14 03:33:01;;;;;;;8.13;5.65;;;;;;;17.66;72.91;95010.34;4802935;29;20210;-67
2023/09/14 03:35:26;;;;;;;13.30;5.35;;;;;;;17.63;72.95;95009.00;4802830;29;20180;-67
2023/09/14 03:37:52;;;;;;;12.00;5.70;;;;;;;17.76;72.81;95025.63;4802745;29;20187;-67
2023/09/14 03:40:17;;;;;;;16.23;6.13;;;;;;;17.66;73.01;95024.47;4802814;29;20233;-67
2023/09/14 03:42:43;;;;;;;11.73;5.55;;;;;;;17.63;73.21;95027.66;4802621;29;20187;-67
2023/09/14 03:45:08;;;;;;;11.63;5.45;;;;;;;17.65;73.58;95030.03;4802649;29;20539;-67
2023/09/14 03:47:34;;;;;;;15.57;5.30;;;;;;;17.67;73.50;95025.28;4802728;29;20180;-67
2023/09/14 03:49:59;;;;;;;18.73;5.13;;;;;;;17.60;73.31;95006.00;4802640;29;20723;-67
2023/09/14 03:52:25;;;;;;;13.98;5.22;;;;;;;17.63;73.45;95025.00;4786560;29;20188;-67
2023/09/14 03:54:50;;;;;;;12.95;5.40;;;;;;;17.59;73.76;95018.50;4802905;29;20192;-67
2023/09/14 03:57:16;;;;;;;14.38;5.70;;;;;;;17.53;74.00;95022.19;4802820;29;20180;-67
2023/09/14 03:59:42;;;;;;;11.98;5.45;;;;;;;17.52;74.24;95030.41;4802820;29;20214;-67
2023/09/14 04:02:09;;;;;;;26.55;6.68;;;;;;;17.49;74.52;95026.38;4786307;29;20187;-66
2023/09/14 04:04:35;;;;;;;19.83;5.55;;;;;;;17.44;74.39;95020.22;4802616;29;20225;-67
2023/09/14 04:07:00;;;;;;;23.73;5.32;;;;;;;17.48;74.31;95037.28;4802542;29;20223;-67
2023/09/14 04:09:29;;;;;;;14.43;5.85;;;;;;;17.46;74.36;95040.22;4802423;29;20233;-68
2023/09/14 04:11:56;;;;;;;16.85;6.95;;;;;;;17.41;74.55;95040.13;4802091;29;20231;-67
2023/09/14 04:14:21;;;;;;;12.18;4.97;;;;;;;17.37;74.84;95039.03;4802398;29;20568;-67
2023/09/14 04:16:47;;;;;;;16.33;6.35;;;;;;;17.37;74.98;95033.72;4802590;29;20200;-67
2023/09/14 04:19:13;;;;;;;13.93;6.03;;;;;;;17.39;74.65;95041.44;4802525;29;20276;-67
2023/09/14 04:21:41;;;;;;;10.85;6.07;;;;;;;17.42;74.65;95039.09;4802375;29;20331;-67
2023/09/14 04:24:07;;;;;;;15.20;6.20;;;;;;;17.44;74.58;95047.63;4802603;29;20655;-66
2023/09/14 04:26:32;;;;;;;18.30;6.80;;;;;;;17.47;74.34;95041.00;4802187;29;20180;-67
2023/09/14 04:28:58;;;;;;;17.30;5.93;;;;;;;17.47;74.51;95047.13;4802468;29;20175;-67
2023/09/14 04:31:24;;;;;;;23.98;6.20;;;;;;;17.49;74.54;95045.00;4802272;29;20172;-67
2023/09/14 04:33:49;;;;;;;21.35;6.95;;;;;;;17.51;74.19;95042.91;4801550;29;20179;-67
2023/09/14 04:36:15;;;;;;;21.98;6.53;;;;;;;17.52;74.26;95049.03;4783220;29;20184;-68
2023/09/14 04:38:40;;;;;;;19.88;6.00;;;;;;;17.58;74.09;95056.84;4786370;29;20250;-67
2023/09/14 04:41:05;;;;;;;23.02;6.57;;;;;;;17.65;74.03;95052.16;4786902;29;20325;-67
2023/09/14 04:43:32;;;;;;;23.63;6.63;;;;;;;17.68;74.05;95045.53;4786852;29;20557;-67
2023/09/14 04:46:04;;;;;;;20.02;6.00;;;;;;;17.75;73.84;95051.47;4790801;29;20187;-68
2023/09/14 04:48:29;;;;;;;14.52;6.50;;;;;;;17.81;73.54;95039.03;4786759;29;20172;-68
2023/09/14 04:50:56;;;;;;;18.17;6.85;;;;;;;17.94;73.65;95046.59;4787136;30;20248;-68
2023/09/14 04:53:21;;;;;;;35.00;8.05;;;;;;;18.06;73.26;95052.59;4787518;29;20196;-68
2023/09/14 04:55:47;;;;;;;26.38;6.90;;;;;;;18.18;72.96;95053.22;4787565;30;20208;-68
2023/09/14 04:58:12;;;;;;;23.63;6.97;;;;;;;18.35;72.59;95055.75;4787501;29;20251;-68
2023/09/14 05:00:38;;;;;;;22.50;6.72;;;;;;;18.48;72.29;95050.81;4771592;30;20199;-68
2023/09/14 05:03:05;;;;;;;14.52;6.07;;;;;;;18.76;71.16;95055.06;4787164;29;20210;-68
2023/09/14 05:05:34;;;;;;;19.85;6.40;;;;;;;19.20;69.60;95031.53;4787231;29;20598;-68
2023/09/14 05:08:00;;;;;;;20.27;5.85;;;;;;;20.18;67.43;95052.16;4787306;30;20184;-68
2023/09/14 05:10:26;;;;;;;26.02;6.57;;;;;;;21.16;62.97;95062.56;4787384;30;20457;-68
2023/09/14 05:12:52;;;;;;;26.05;7.07;;;;;;;22.42;59.42;95072.75;4787173;29;20237;-68
2023/09/14 05:15:17;;;;;;;14.68;5.50;;;;;;;23.69;55.90;95058.16;4787098;29;20196;-69
2023/09/14 05:17:46;;;;;;;15.88;6.65;;;;;;;24.95;51.69;95076.25;4787163;29;20195;-69
2023/09/14 05:20:12;;;;;;;20.30;6.13;;;;;;;25.60;49.33;95082.34;4787034;30;20245;-69
2023/09/14 05:22:40;;;;;;;24.13;6.00;;;;;;;25.62;49.08;95071.28;4770882;30;20181;-69
2023/09/14 05:25:05;;;;;;;16.00;6.13;;;;;;;25.27;49.58;95078.91;4787056;29;20200;-69
2023/09/14 05:27:38;;;;;;;24.40;6.57;;;;;;;24.79;50.69;95071.09;4787063;29;20263;-69
2023/09/14 05:30:06;;;;;;;22.40;6.45;;;;;;;24.32;52.06;95069.41;4787216;30;20712;-69
2023/09/14 05:32:31;;;;;;;17.27;6.47;;;;;;;24.08;53.87;95069.47;4786975;29;20180;-68
2023/09/14 05:34:57;;;;;;;20.27;6.00;;;;;;;24.06;54.25;95065.44;4787063;30;20181;-69
2023/09/14 05:37:23;;;;;;;21.65;6.28;;;;;;;24.21;53.87;95067.97;4787185;29;20555;-68
2023/09/14 05:39:48;;;;;;;17.25;6.25;;;;;;;24.65;52.75;95072.16;4786818;29;20176;-69
2023/09/14 05:42:14;;;;;;;15.55;4.93;;;;;;;25.22;50.13;95070.94;4788513;29;20241;-68
2023/09/14 05:44:39;;;;;;;12.48;6.10;;;;;;;25.91;47.81;95069.88;4786612;29;20188;-68
2023/09/14 05:47:05;;;;;;;16.05;5.95;;;;;;;26.87;46.54;95072.31;4786833;29;20184;-69
2023/09/14 05:49:30;;;;;;;18.33;6.40;;;;;;;27.74;43.44;95070.88;4785685;29;20201;-69
2023/09/14 05:51:56;;;;;;;16.85;5.72;;;;;;;28.32;40.50;95086.00;4770598;29;20180;-69
2023/09/14 05:54:21;;;;;;;15.82;6.68;;;;;;;28.73;40.09;95089.03;4786479;29;20522;-67
2023/09/14 05:56:46;;;;;;;10.57;5.15;;;;;;;29.15;38.75;95082.00;4786531;30;20220;-67
2023/09/14 05:59:12;;;;;;;15.13;5.35;;;;;;;29.15;37.63;95067.63;4787897;29;20187;-69
2023/09/14 06:01:37;;;;;;;12.30;5.40;;;;;;;28.87;38.46;95075.38;4786491;29;20570;-69
2023/09/14 06:04:03;;;;;;;12.82;5.68;;;;;;;28.51;39.29;95073.75;4786338;30;20225;-69
2023/09/14 06:06:28;;;;;;;9.88;4.70;;;;;;;28.38;38.83;95069.28;4786279;29;20196;-69
2023/09/14 06:08:53;;;;;;;10.98;3.80;;;;;;;28.63;38.53;95075.03;4786282;30;20291;-69
2023/09/14 06:11:19;;;;;;;7.65;4.63;;;;;;;28.73;37.50;95070.06;4788706;29;20220;-69
2023/09/14 06:13:44;;;;;;;13.43;3.88;;;;;;;28.87;37.49;95067.22;4792675;29;20247;-67
2023/09/14 06:16:11;;;;;;;15.30;4.75;;;;;;;28.82;38.20;95068.19;4794211;29;20187;-69
2023/09/14 06:18:36;;;;;;;12.77;4.75;;;;;;;28.43;38.14;95062.91;4793294;29;20307;-68
2023/09/14 06:21:01;;;;;;;9.30;4.53;;;;;;;28.49;38.41;95067.06;4792300;29;20663;-69
2023/09/14 06:23:27;;;;;;;10.52;4.68;;;;;;;28.57;38.95;95068.16;4791502;29;20277;-69
2023/09/14 06:25:52;;;;;;;11.73;4.78;;;;;;;28.82;38.04;95075.50;4791873;29;20184;-67
2023/09/14 06:28:18;;;;;;;12.07;4.00;;;;;;;28.73;37.64;95059.22;4793776;29;20555;-67
2023/09/14 06:30:43;;;;;;;11.32;4.45;;;;;;;28.71;38.24;95076.94;4787846;29;20207;-68
2023/09/14 06:33:11;;;;;;;14.65;4.55;;;;;;;28.47;38.99;95070.06;4784963;29;20188;-68
2023/09/14 06:35:36;;;;;;;16.83;4.60;;;;;;;28.15;39.78;95082.13;4788831;29;20196;-67
2023/09/14 06:38:04;;;;;;;12.52;4.30;;;;;;;27.98;40.01;95079.38;4789260;29;20177;-67
2023/09/14 06:40:29;;;;;;;13.38;4.72;;;;;;;27.88;41.10;95082.38;4792546;29;20184;-67
2023/09/14 06:42:55;;;;;;;14.57;5.03;;;;;;;27.79;40.77;95087.75;4788015;29;20180;-67
2023/09/14 06:45:20;;;;;;;13.57;4.78;;;;;;;27.79;41.15;95093.19;4785676;29;20185;-67
2023/09/14 06:47:46;;;;;;;7.60;4.82;;;;;;;27.82;41.55;95091.75;4789057;29;20746;-67
2023/09/14 06:50:12;;;;;;;13.52;4.70;;;;;;;28.04;40.73;95094.38;4792202;29;20204;-67
2023/09/14 06:52:37;;;;;;;9.55;4.75;;;;;;;28.54;39.88;95097.47;4793156;29;20258;-66
2023/09/14 06:55:03;;;;;;;13.85;5.63;;;;;;;28.95;39.22;95103.59;4792777;29;20192;-67
2023/09/14 06:57:29;;;;;;;12.00;5.43;;;;;;;29.41;38.50;95109.09;4792242;29;20177;-67
2023/09/14 06:59:54;;;;;;;18.52;4.75;;;;;;;29.64;37.29;95099.63;4789581;29;20251;-67
2023/09/14 07:02:20;;;;;;;13.02;5.50;;;;;;;29.81;37.72;95100.66;4789522;29;20188;-67
2023/09/14 07:04:45;;;;;;;12.80;4.75;;;;;;;29.80;37.03;95105.28;4784839;29;20276;-67
2023/09/14 07:07:10;;;;;;;14.55;4.95;;;;;;;29.75;37.72;95107.41;4785889;29;20669;-68
2023/09/14 07:09:36;;;;;;;15.35;5.00;;;;;;;29.60;36.70;95106.78;4785349;29;20300;-68
2023/09/14 07:12:02;;;;;;;18.05;4.68;;;;;;;29.30;36.80;95101.59;4788921;29;20230;-67
2023/09/14 07:14:28;;;;;;;12.95;4.25;;;;;;;29.14;36.99;95104.03;4786464;29;20181;-67
2023/09/14 07:16:53;;;;;;;56.63;8.10;;;;;;;29.06;37.78;95108.34;4785023;30;20184;-67
2023/09/14 07:19:19;;;;;;;8.48;3.92;;;;;;;28.96;38.02;95099.75;4784952;29;20188;-67
2023/09/14 07:21:44;;;;;;;11.57;4.15;;;;;;;28.95;37.83;95111.72;4784992;29;20574;-68
2023/09/14 07:24:09;;;;;;;13.73;4.28;;;;;;;28.91;38.10;95106.13;4785006;29;20264;-68
2023/09/14 07:26:35;;;;;;;16.38;4.10;;;;;;;28.92;37.85;95102.28;4784894;29;20633;-68
2023/09/14 07:29:00;;;;;;;33.03;5.93;;;;;;;28.59;37.91;95093.03;4784840;29;20993;-68
2023/09/14 07:31:26;;;;;;;16.83;4.10;;;;;;;28.68;38.04;95104.69;4784746;29;20208;-68
2023/09/14 07:33:52;;;;;;;20.10;4.70;;;;;;;28.67;38.53;95112.00;4784901;29;20184;-67
2023/09/14 07:36:17;;;;;;;12.43;4.50;;;;;;;28.67;38.23;95108.50;4784972;29;20192;-68
2023/09/14 07:38:43;;;;;;;14.77;3.83;;;;;;;28.88;38.56;95117.63;4784775;29;20180;-67
2023/09/14 07:41:08;;;;;;;22.02;4.93;;;;;;;29.29;38.39;95117.09;4784705;30;20259;-67
2023/09/14 07:43:33;;;;;;;10.90;4.15;;;;;;;29.22;36.00;95120.28;4784713;29;20271;-67
2023/09/14 07:45:59;;;;;;;13.23;4.18;;;;;;;28.89;35.71;95097.50;4784804;29;20541;-67
2023/09/14 07:48:24;;;;;;;12.50;3.72;;;;;;;28.74;36.48;95106.09;4786515;29;20294;-67
2023/09/14 07:50:50;;;;;;;12.02;3.60;;;;;;;28.68;36.68;95100.06;4794620;29;20216;-68
2023/09/14 07:53:17;;;;;;;10.68;4.35;;;;;;;28.87;36.49;95111.41;4790855;29;20185;-68
2023/09/14 07:55:42;;;;;;;17.95;4.78;;;;;;;29.07;36.57;95119.97;4768610;30;20207;-68
2023/09/14 07:58:07;;;;;;;10.57;3.83;;;;;;;28.86;35.57;95115.22;4784437;29;20200;-68
2023/09/14 08:00:35;;;;;;;15.50;3.88;;;;;;;29.06;37.31;95113.00;4784682;30;20184;-67
2023/09/14 08:03:01;;;;;;;15.75;4.07;;;;;;;29.51;35.62;95107.94;4784565;29;20193;-68
2023/09/14 08:05:27;;;;;;;8.45;3.40;;;;;;;29.41;35.27;95108.28;4784600;29;21011;-68
2023/09/14 08:07:53;;;;;;;14.65;3.47;;;;;;;29.31;35.69;95087.72;4784639;29;20299;-68
2023/09/14 08:10:19;;;;;;;10.55;3.72;;;;;;;28.83;36.30;95094.16;4798351;29;20298;-68
2023/09/14 08:12:45;;;;;;;16.33;4.82;;;;;;;27.95;37.82;95085.41;4788598;29;20671;-68
2023/09/14 08:15:12;;;;;;;15.45;4.38;;;;;;;27.83;38.05;95085.25;4787080;29;20190;-68
2023/09/14 08:17:38;;;;;;;14.98;3.60;;;;;;;28.20;38.06;95086.63;4786444;29;20188;-67
2023/09/14 08:20:04;;;;;;;15.68;4.85;;;;;;;28.21;38.12;95085.50;4769953;29;20238;-67
2023/09/14 08:22:30;;;;;;;10.18;3.92;;;;;;;28.62;37.30;95076.16;4786041;29;20212;-67
2023/09/14 08:24:58;;;;;;;9.63;4.13;;;;;;;29.19;36.14;95093.00;4786998;29;20602;-68
2023/09/14 08:27:24;;;;;;;16.70;4.38;;;;;;;29.23;35.73;95091.25;4786798;30;20629;-68
2023/09/14 08:29:50;;;;;;;15.15;3.63;;;;;;;29.32;35.50;95075.72;4786856;29;20218;-68
2023/09/14 08:32:16;;;;;;;11.60;3.97;;;;;;;29.41;36.09;95086.59;4771537;30;20189;-69
2023/09/14 08:34:41;;;;;;;16.58;4.45;;;;;;;29.49;35.24;95088.50;4788040;30;20249;-68
2023/09/14 08:37:10;;;;;;;9.77;3.63;;;;;;;29.46;35.75;95081.00;4787712;29;20173;-68
2023/09/14 08:39:37;;;;;;;15.13;3.70;;;;;;;29.53;36.21;95086.72;4785954;29;20185;-68
2023/09/14 08:42:03;;;;;;;10.18;4.57;;;;;;;29.34;36.33;95064.56;4787762;29;20196;-69
2023/09/14 08:44:33;;;;;;;15.13;3.50;;;;;;;29.79;35.92;95081.97;4787644;29;20196;-68
2023/09/14 08:47:00;;;;;;;8.63;3.50;;;;;;;30.12;35.15;95074.00;4787591;30;20192;-68
2023/09/14 08:49:28;;;;;;;15.68;4.10;;;;;;;30.31;34.70;95074.34;4787451;29;20295;-68
2023/09/14 08:51:56;;;;;;;8.57;3.85;;;;;;;30.42;34.25;95061.19;4787576;30;20260;-68
2023/09/14 08:54:21;;;;;;;15.88;3.58;;;;;;;30.63;34.09;95066.63;4787241;30;20205;-68
2023/09/14 08:56:49;;;;;;;12.15;3.80;;;;;;;30.69;34.04;95063.38;4787438;29;20591;-68
2023/09/14 08:59:16;;;;;;;13.30;3.92;;;;;;;30.36;33.80;95062.47;4787218;29;20184;-68
2023/09/14 09:01:44;;;;;;;11.65;3.72;;;;;;;30.35;35.12;95053.56;4788595;29;20191;-68
2023/09/14 09:04:10;;;;;;;11.40;4.30;;;;;;;30.29;34.07;95054.84;4793701;29;20221;-69
2023/09/14 09:06:37;;;;;;;14.55;3.70;;;;;;;30.20;34.95;95043.25;4793209;29;20215;-69
2023/09/14 09:09:04;;;;;;;11.85;4.00;;;;;;;29.91;34.74;95037.84;4788632;29;20208;-68
2023/09/14 09:11:30;;;;;;;8.43;4.15;;;;;;;29.70;35.24;95017.97;4787318;29;20223;-69
2023/09/14 09:13:56;;;;;;;15.60;4.28;;;;;;;29.70;35.24;95031.56;4787066;29;20200;-68
2023/09/14 09:16:21;;;;;;;18.02;4.45;;;;;;;29.63;35.72;95019.31;4787153;29;20260;-68
2023/09/14 09:19:13;;;;;;;21.05;4.55;;;;;;;29.42;35.38;95017.63;4787058;30;20193;-68
2023/09/14 09:21:41;;;;;;;12.32;4.03;;;;;;;29.38;36.03;95025.66;4769906;30;20203;-68
2023/09/14 09:24:07;;;;;;;15.00;4.57;;;;;;;29.35;35.98;95011.88;4769703;30;20192;-68
2023/09/14 09:26:35;;;;;;;14.27;4.18;;;;;;;29.54;36.03;95021.25;4786876;29;20188;-68
2023/09/14 09:29:13;;;;;;;11.88;3.60;;;;;;;29.56;35.64;95010.88;4785025;29;20184;-69
2023/09/14 09:31:46;;;;;;;15.23;3.90;;;;;;;29.59;36.80;95012.94;4786335;29;20207;-68
2023/09/14 09:34:12;;;;;;;12.93;4.88;;;;;;;29.79;35.55;95019.53;4786236;29;20185;-68
2023/09/14 09:36:38;;;;;;;11.63;4.30;;;;;;;29.84;35.43;95013.91;4786305;29;20668;-68
2023/09/14 09:39:05;;;;;;;14.77;3.70;;;;;;;29.93;35.46;95011.13;4786277;29;20177;-69
2023/09/14 09:41:35;;;;;;;16.05;4.68;;;;;;;29.86;35.71;95006.22;4786207;29;20230;-68
2023/09/14 09:44:09;;;;;;;17.83;4.15;;;;;;;29.70;35.60;95013.34;4785976;29;20184;-68
2023/09/14 09:46:35;;;;;;;14.88;3.95;;;;;;;29.71;35.71;95012.22;4784783;29;20206;-69
2023/09/14 09:49:14;;;;;;;11.18;3.67;;;;;;;29.84;36.08;95005.75;4786481;29;20250;-68
2023/09/14 09:51:40;;;;;;;10.45;3.03;;;;;;;30.04;35.99;95008.84;4784312;29;20630;-69
2023/09/14 09:54:07;;;;;;;11.57;3.83;;;;;;;30.17;34.77;95013.25;4786055;29;20188;-68
2023/09/14 09:56:34;;;;;;;11.48;3.45;;;;;;;30.29;35.16;95010.59;4784314;29;20242;-68
2023/09/14 09:59:09;;;;;;;14.18;4.47;;;;;;;30.41;35.22;95004.44;4785811;29;20261;-68
2023/09/14 10:01:38;;;;;;;15.80;3.60;;;;;;;30.57;33.92;95003.50;4785865;29;20172;-68
2023/09/14 10:04:14;;;;;;;10.40;4.15;;;;;;;30.52;34.35;95002.94;4785742;29;20264;-68
2023/09/14 10:06:43;;;;;;;7.05;3.47;;;;;;;30.59;34.53;95003.97;4784674;29;20186;-68
2023/09/14 10:09:11;;;;;;;9.23;3.80;;;;;;;30.77;35.19;94993.75;4785683;29;20187;-68
2023/09/14 10:11:39;;;;;;;9.90;3.85;;;;;;;30.57;33.14;94992.63;4785763;29;20203;-68
2023/09/14 10:14:05;;;;;;;9.50;3.50;;;;;;;30.67;33.70;94994.94;4783787;29;20227;-67
2023/09/14 10:16:40;;;;;;;13.70;4.25;;;;;;;30.75;33.31;94988.63;4785531;29;20177;-67
2023/09/14 10:19:06;;;;;;;10.70;3.63;;;;;;;30.81;34.13;94985.69;4785494;29;20651;-69
2023/09/14 10:21:33;;;;;;;5.95;3.70;;;;;;;30.92;32.62;94987.66;4785579;29;20196;-68
2023/09/14 10:24:03;;;;;;;15.52;4.45;;;;;;;30.72;32.65;94980.34;4785256;29;20188;-68
2023/09/14 10:26:29;;;;;;;9.40;3.70;;;;;;;30.74;32.72;94972.66;4785990;29;20180;-68
2023/09/14 10:28:56;;;;;;;10.10;4.10;;;;;;;30.72;32.41;94970.25;4785720;29;20265;-67
2023/09/14 10:31:23;;;;;;;7.03;3.58;;;;;;;30.67;32.63;94975.13;4783620;29;20266;-68
2023/09/14 10:33:51;;;;;;;7.88;3.47;;;;;;;30.74;32.40;94964.50;4784095;29;20250;-68
2023/09/14 10:36:18;;;;;;;8.75;3.78;;;;;;;30.89;31.63;94972.00;4790782;29;20189;-68
2023/09/14 10:38:47;;;;;;;14.13;4.28;;;;;;;30.92;32.86;94952.31;4791038;29;20206;-68
2023/09/14 10:41:13;;;;;;;12.68;3.78;;;;;;;31.00;31.97;94964.22;4789704;29;20260;-68
2023/09/14 10:43:39;;;;;;;19.85;4.25;;;;;;;30.98;30.54;94963.75;4793596;29;20189;-68
2023/09/14 10:46:10;;;;;;;11.00;3.58;;;;;;;30.86;30.49;94950.94;4794645;29;20971;-68
2023/09/14 10:48:37;;;;;;;7.43;3.80;;;;;;;30.81;30.17;94962.00;4774726;29;20614;-68
2023/09/14 10:51:03;;;;;;;10.25;3.53;;;;;;;30.68;29.98;94953.03;4791272;29;20192;-69
2023/09/14 10:53:29;;;;;;;10.25;4.30;;;;;;;30.62;31.73;94953.56;4786921;29;20189;-71
2023/09/14 10:55:55;;;;;;;9.80;3.65;;;;;;;30.34;31.00;94956.06;4783334;29;20195;-68
2023/09/14 10:58:21;;;;;;;6.85;3.17;;;;;;;30.16;31.78;94930.16;4784575;29;20185;-68
2023/09/14 11:00:56;;;;;;;12.75;3.97;;;;;;;30.15;32.22;94942.94;4783838;29;20894;-68
2023/09/14 11:03:22;;;;;;;9.57;3.63;;;;;;;30.16;32.30;94946.47;4784509;29;20641;-68
2023/09/14 11:05:50;;;;;;;5.85;3.58;;;;;;;30.30;32.64;94934.19;4784441;29;20192;-68
2023/09/14 11:08:18;;;;;;;8.95;3.45;;;;;;;30.44;31.05;94935.84;4782662;29;20192;-68
2023/09/14 11:10:53;;;;;;;10.50;3.80;;;;;;;30.47;32.47;94927.00;4784378;29;20212;-69
2023/09/14 11:13:18;;;;;;;7.10;3.42;;;;;;;30.57;31.67;94932.03;4782163;29;20828;-68
2023/09/14 11:15:46;;;;;;;7.07;3.63;;;;;;;30.65;31.64;94928.44;4784688;29;20181;-68
2023/09/14 11:18:16;;;;;;;7.45;3.90;;;;;;;30.65;31.51;94917.56;4785203;29;20623;-68
2023/09/14 11:20:42;;;;;;;8.35;3.03;;;;;;;30.79;30.83;94928.91;4785219;29;20191;-68
2023/09/14 11:23:09;;;;;;;9.60;3.95;;;;;;;30.60;29.89;94925.94;4785049;30;20259;-68
2023/09/14 11:25:36;;;;;;;6.53;3.58;;;;;;;30.55;30.87;94920.69;4785039;29;20241;-67